createdAt,value
2017-10-02T00:01:03.858Z,10.71
2017-10-02T00:06:03.582Z,10.79
2017-10-02T00:11:03.935Z,10.85
2017-10-02T00:16:03.727Z,10.69
2017-10-02T00:21:03.574Z,10.71
2017-10-02T00:26:04.167Z,10.71
2017-10-02T00:31:03.882Z,10.67
2017-10-02T00:36:03.698Z,10.60
2017-10-02T00:41:03.837Z,10.64
2017-10-02T00:46:03.611Z,10.69
2017-10-02T00:51:03.357Z,10.93
2017-10-02T00:56:03.101Z,10.73
2017-10-02T01:01:04.458Z,10.69
2017-10-02T01:06:03.096Z,10.85
2017-10-02T01:11:03.307Z,10.62
2017-10-02T01:16:03.047Z,10.71
2017-10-02T01:21:03.146Z,10.56
2017-10-02T01:26:03.900Z,10.63
2017-10-02T01:31:03.710Z,10.60
2017-10-02T01:36:03.477Z,10.60
2017-10-02T01:41:03.618Z,10.56
2017-10-02T01:46:03.397Z,10.50
2017-10-02T01:51:03.183Z,10.58
2017-10-02T01:56:03.902Z,10.48
2017-10-02T02:01:03.666Z,10.60
2017-10-02T02:06:03.418Z,10.77
2017-10-02T02:11:03.635Z,10.79
2017-10-02T02:16:03.417Z,10.94
2017-10-02T02:21:03.262Z,10.97
2017-10-02T02:26:03.034Z,11.11
2017-10-02T02:31:03.845Z,11.37
2017-10-02T02:36:03.568Z,11.21
2017-10-02T02:41:03.745Z,11.35
2017-10-02T02:46:03.524Z,11.45
2017-10-02T02:51:03.295Z,11.36
2017-10-02T02:56:03.145Z,11.45
2017-10-02T03:01:03.918Z,11.41
2017-10-02T03:06:03.688Z,11.41
2017-10-02T03:11:03.839Z,11.37
2017-10-02T03:16:03.562Z,11.43
2017-10-02T03:21:03.457Z,11.54
2017-10-02T03:26:03.237Z,11.54
2017-10-02T03:31:03.021Z,11.53
2017-10-02T03:36:03.783Z,11.54
2017-10-02T03:41:03.951Z,11.67
2017-10-02T03:46:03.775Z,11.67
2017-10-02T03:51:03.508Z,11.73
2017-10-02T03:56:03.282Z,11.78
2017-10-02T04:01:03.078Z,11.80
2017-10-02T04:06:03.801Z,11.90
2017-10-02T04:11:03.963Z,11.96
2017-10-02T04:16:03.619Z,12.09
2017-10-02T04:21:03.515Z,12.09
2017-10-02T04:26:03.308Z,12.33
2017-10-02T04:31:03.023Z,12.23
2017-10-02T04:36:03.841Z,12.50
2017-10-02T04:41:03.036Z,12.37
2017-10-02T04:46:03.774Z,12.54
2017-10-02T04:51:03.528Z,12.52
2017-10-02T04:56:02.694Z,12.47
2017-10-02T05:01:02.989Z,12.54
2017-10-02T05:06:03.731Z,12.63
2017-10-02T05:11:03.900Z,12.60
2017-10-02T05:16:03.692Z,12.70
2017-10-02T05:21:03.475Z,12.60
2017-10-02T05:26:03.318Z,12.67
2017-10-02T05:31:03.092Z,12.70
2017-10-02T05:36:03.751Z,12.79
2017-10-02T05:41:03.970Z,12.85
2017-10-02T05:46:03.065Z,12.75
2017-10-02T05:51:03.889Z,12.95
2017-10-02T05:56:03.596Z,12.95
2017-10-02T06:01:03.399Z,13.00
2017-10-02T06:06:03.352Z,12.97
2017-10-02T06:11:03.418Z,12.98
2017-10-02T06:16:03.230Z,13.03
2017-10-02T06:21:03.090Z,13.13
2017-10-02T06:26:03.835Z,13.02
2017-10-02T06:31:03.532Z,13.20
2017-10-02T06:36:03.267Z,13.16
2017-10-02T06:41:03.408Z,13.20
2017-10-02T06:46:02.619Z,13.23
2017-10-02T06:51:03.927Z,13.35
2017-10-02T06:56:03.626Z,13.36
2017-10-02T07:01:03.376Z,13.36
2017-10-02T07:06:03.093Z,13.50
2017-10-02T07:11:03.201Z,13.48
2017-10-02T07:16:03.942Z,13.45
2017-10-02T07:21:03.805Z,13.43
2017-10-02T07:26:03.600Z,13.46
2017-10-02T07:31:03.496Z,13.55
2017-10-02T07:36:03.225Z,13.58
2017-10-02T07:41:03.468Z,13.55
2017-10-02T07:46:03.190Z,13.70
2017-10-02T07:51:03.896Z,13.65
2017-10-02T07:56:03.761Z,13.68
2017-10-02T08:01:03.544Z,13.68
2017-10-02T08:06:03.244Z,13.73
2017-10-02T08:11:03.398Z,13.86
2017-10-02T08:16:03.125Z,13.88
2017-10-02T08:21:02.949Z,13.86
2017-10-02T08:26:03.781Z,13.88
2017-10-02T08:31:03.550Z,13.98
2017-10-02T08:36:03.686Z,14.03
2017-10-02T08:41:03.929Z,14.22
2017-10-02T08:46:03.588Z,14.13
2017-10-02T08:51:03.406Z,14.14
2017-10-02T08:56:03.132Z,14.14
2017-10-02T09:01:03.946Z,14.14
2017-10-02T09:06:03.684Z,14.27
2017-10-02T09:11:03.821Z,14.39
2017-10-02T09:16:03.528Z,14.39
2017-10-02T09:21:03.361Z,14.39
2017-10-02T09:26:03.160Z,14.46
2017-10-02T09:31:03.940Z,14.46
2017-10-02T09:36:03.732Z,14.55
2017-10-02T09:41:03.896Z,14.59
2017-10-02T09:46:03.694Z,14.55
2017-10-02T09:51:03.473Z,14.67
2017-10-02T09:56:03.236Z,14.85
2017-10-02T10:01:03.082Z,15.03
2017-10-02T10:06:03.814Z,15.05
2017-10-02T10:11:03.195Z,15.03
2017-10-02T10:16:03.084Z,15.07
2017-10-02T10:21:03.886Z,15.03
2017-10-02T10:26:03.664Z,15.02
2017-10-02T10:31:03.483Z,15.10
2017-10-02T10:36:03.228Z,15.08
2017-10-02T10:41:03.365Z,15.13
2017-10-02T10:46:03.221Z,15.06
2017-10-02T10:51:03.029Z,15.23
2017-10-02T10:56:03.732Z,15.19
2017-10-02T11:01:03.592Z,15.26
2017-10-02T11:06:03.446Z,15.34
2017-10-02T11:11:03.610Z,15.37
2017-10-02T11:16:03.403Z,15.38
2017-10-02T11:21:03.324Z,15.45
2017-10-02T11:26:03.081Z,15.34
2017-10-02T11:31:03.844Z,15.22
2017-10-02T11:36:03.570Z,15.07
2017-10-02T11:41:03.779Z,14.79
2017-10-02T11:46:03.542Z,14.78
2017-10-02T11:51:03.375Z,15.26
2017-10-02T11:56:03.173Z,15.51
2017-10-02T12:01:03.887Z,15.88
2017-10-02T12:06:03.642Z,15.54
2017-10-02T12:11:03.768Z,15.70
2017-10-02T12:16:03.535Z,15.64
2017-10-02T12:21:03.570Z,15.32
2017-10-02T12:26:03.394Z,15.65
2017-10-02T12:31:03.130Z,15.63
2017-10-02T12:36:03.884Z,14.75
2017-10-02T12:41:03.071Z,14.82
2017-10-02T12:46:03.811Z,14.70
2017-10-02T12:51:03.567Z,14.25
2017-10-02T12:56:03.339Z,14.39
2017-10-02T13:01:03.103Z,14.24
2017-10-02T13:06:03.955Z,14.07
2017-10-02T13:11:03.078Z,14.15
2017-10-02T13:16:03.775Z,14.03
2017-10-02T13:21:03.726Z,14.77
2017-10-02T13:26:03.563Z,14.70
2017-10-02T13:31:03.204Z,14.20
2017-10-02T13:36:03.065Z,14.93
2017-10-02T13:41:03.158Z,14.85
2017-10-02T13:46:03.872Z,14.80
2017-10-02T13:51:03.593Z,14.85
2017-10-02T13:56:03.495Z,14.28
2017-10-02T14:01:03.280Z,14.18
2017-10-02T14:06:03.173Z,14.15
2017-10-02T14:11:03.295Z,14.52
2017-10-02T14:16:03.115Z,14.17
2017-10-02T14:21:04.004Z,14.04
2017-10-02T14:26:03.747Z,14.50
2017-10-02T14:31:03.507Z,14.12
2017-10-02T14:36:03.166Z,14.02
2017-10-02T14:41:03.400Z,13.44
2017-10-02T14:46:03.189Z,13.46
2017-10-02T14:51:03.876Z,13.13
2017-10-02T14:56:03.585Z,13.15
2017-10-02T15:01:03.700Z,13.15
2017-10-02T15:06:03.326Z,13.13
2017-10-02T15:11:03.542Z,13.06
2017-10-02T15:16:03.313Z,12.53
2017-10-02T15:21:03.122Z,13.05
2017-10-02T15:26:03.961Z,13.18
2017-10-02T15:31:03.618Z,12.75
2017-10-02T15:36:03.366Z,12.61
2017-10-02T15:41:03.514Z,12.68
2017-10-02T15:46:03.268Z,12.87
2017-10-02T15:51:02.942Z,12.82
2017-10-02T15:56:03.676Z,12.63
2017-10-02T16:01:03.400Z,12.88
2017-10-02T16:06:03.424Z,12.78
2017-10-02T16:11:03.540Z,12.82
2017-10-02T16:16:03.307Z,12.78
2017-10-02T16:21:03.169Z,12.78
2017-10-02T16:26:03.886Z,12.52
2017-10-02T16:31:03.658Z,12.43
2017-10-02T16:36:03.438Z,12.55
2017-10-02T16:41:03.628Z,12.63
2017-10-02T16:46:03.448Z,12.60
2017-10-02T16:51:03.179Z,12.52
2017-10-02T16:56:03.928Z,12.44
2017-10-02T17:01:03.687Z,12.47
2017-10-02T17:06:03.442Z,12.63
2017-10-02T17:11:03.534Z,12.65
2017-10-02T17:16:03.363Z,12.52
2017-10-02T17:21:03.192Z,12.49
2017-10-02T17:26:03.888Z,12.64
2017-10-02T17:31:03.675Z,12.47
2017-10-02T17:36:03.373Z,12.59
2017-10-02T17:41:03.690Z,12.66
2017-10-02T17:46:03.308Z,12.53
2017-10-02T17:51:03.477Z,12.50
2017-10-02T17:56:03.472Z,12.41
2017-10-02T18:01:03.209Z,12.42
2017-10-02T18:06:03.123Z,12.35
2017-10-02T18:11:03.590Z,12.17
2017-10-02T18:16:03.364Z,12.24
2017-10-02T18:21:03.236Z,12.25
2017-10-02T18:26:03.226Z,12.37
2017-10-02T18:31:03.179Z,12.32
2017-10-02T18:36:03.843Z,12.25
2017-10-02T18:41:03.234Z,12.36
2017-10-02T18:46:03.412Z,12.50
2017-10-02T18:51:03.803Z,12.45
2017-10-02T18:56:04.617Z,12.41
2017-10-02T19:01:03.281Z,12.49
2017-10-02T19:06:03.104Z,12.45
2017-10-02T19:11:03.413Z,12.53
2017-10-02T19:16:03.267Z,12.45
2017-10-02T19:21:03.080Z,12.59
2017-10-02T19:26:03.198Z,12.67
2017-10-02T19:31:03.206Z,12.60
2017-10-02T19:36:04.655Z,12.60
2017-10-02T19:41:03.798Z,12.71
2017-10-02T19:46:04.089Z,12.77
2017-10-02T19:51:03.173Z,12.89
2017-10-02T19:56:03.180Z,12.94
2017-10-02T20:01:03.838Z,12.77
2017-10-02T20:06:03.796Z,13.01
2017-10-02T20:11:03.994Z,13.13
2017-10-02T20:16:03.975Z,12.90
2017-10-02T20:21:04.182Z,12.89
2017-10-02T20:26:04.016Z,12.99
2017-10-02T20:31:04.242Z,12.83
2017-10-02T20:36:04.168Z,12.90
2017-10-02T20:41:03.331Z,12.45
2017-10-02T20:46:03.432Z,12.51
2017-10-02T20:51:03.571Z,12.14
2017-10-02T20:56:04.049Z,11.97
2017-10-02T21:01:03.552Z,11.66
2017-10-02T21:06:03.311Z,11.68
2017-10-02T21:11:03.440Z,11.85
2017-10-02T21:16:03.206Z,12.11
2017-10-02T21:21:03.082Z,12.25
2017-10-02T21:26:03.795Z,12.23
2017-10-02T21:31:03.583Z,12.70
2017-10-02T21:36:03.371Z,12.47
2017-10-02T21:41:03.523Z,12.57
2017-10-02T21:46:03.377Z,12.82
2017-10-02T21:51:03.267Z,12.73
2017-10-02T21:56:02.968Z,12.70
2017-10-02T22:01:03.746Z,12.88
2017-10-02T22:06:03.536Z,12.82
2017-10-02T22:11:03.768Z,12.87
2017-10-02T22:16:03.549Z,12.73
2017-10-02T22:21:03.376Z,12.84
2017-10-02T22:26:03.133Z,12.76
2017-10-02T22:31:03.880Z,12.59
2017-10-02T22:36:03.598Z,12.65
2017-10-02T22:41:03.729Z,12.69
2017-10-02T22:46:03.488Z,12.68
2017-10-02T22:51:03.261Z,12.65
2017-10-02T22:56:02.968Z,12.66
2017-10-02T23:01:03.684Z,12.65
2017-10-02T23:06:03.506Z,12.63
2017-10-02T23:11:03.662Z,12.94
2017-10-02T23:16:03.419Z,12.78
2017-10-02T23:21:03.817Z,12.62
2017-10-02T23:26:03.571Z,12.49
2017-10-02T23:31:03.232Z,12.63
2017-10-02T23:36:02.988Z,12.63
2017-10-02T23:41:03.187Z,12.73
2017-10-02T23:46:03.877Z,12.54
2017-10-02T23:51:03.722Z,12.70
2017-10-02T23:56:03.473Z,12.62
